createdAt,value
2023-04-30T00:00:23.552Z,939.00
2023-04-30T00:01:23.538Z,937.00
2023-04-30T00:02:23.645Z,936.00
2023-04-30T00:03:23.618Z,937.00
2023-04-30T00:04:23.585Z,937.00
2023-04-30T00:05:23.527Z,937.00
2023-04-30T00:06:23.762Z,935.00
2023-04-30T00:07:23.510Z,935.00
2023-04-30T00:08:23.490Z,931.00
2023-04-30T00:09:23.483Z,930.00
2023-04-30T00:10:23.482Z,927.00
2023-04-30T00:11:23.474Z,926.00
2023-04-30T00:12:23.477Z,925.00
2023-04-30T00:13:23.476Z,925.00
2023-04-30T00:14:23.451Z,924.00
2023-04-30T00:15:23.447Z,925.00
2023-04-30T00:16:23.508Z,924.00
2023-04-30T00:17:23.458Z,922.00
2023-04-30T00:18:23.423Z,920.00
2023-04-30T00:19:23.419Z,919.00
2023-04-30T00:20:23.516Z,919.00
2023-04-30T00:21:23.426Z,920.00
2023-04-30T00:22:23.387Z,920.00
2023-04-30T00:23:23.384Z,924.00
2023-04-30T00:24:23.379Z,926.00
2023-04-30T00:25:23.375Z,926.00
2023-04-30T00:26:23.375Z,923.00
2023-04-30T00:27:23.359Z,922.00
2023-04-30T00:28:23.349Z,921.00
2023-04-30T00:29:23.387Z,920.00
2023-04-30T00:30:23.339Z,919.00
2023-04-30T00:31:23.369Z,916.00
2023-04-30T00:32:23.483Z,916.00
2023-04-30T00:33:23.316Z,916.00
2023-04-30T00:34:23.316Z,917.00
2023-04-30T00:35:23.298Z,917.00
2023-04-30T00:36:23.293Z,918.00
2023-04-30T00:37:23.283Z,917.00
2023-04-30T00:38:23.277Z,919.00
2023-04-30T00:39:23.288Z,921.00
2023-04-30T00:40:23.272Z,920.00
2023-04-30T00:41:23.278Z,919.00
2023-04-30T00:42:23.252Z,918.00
2023-04-30T00:43:23.247Z,918.00
2023-04-30T00:44:23.252Z,917.00
2023-04-30T00:45:23.264Z,919.00
2023-04-30T00:46:23.382Z,920.00
2023-04-30T00:47:23.244Z,918.00
2023-04-30T00:48:23.226Z,916.00
2023-04-30T00:49:23.209Z,913.00
2023-04-30T00:50:23.208Z,913.00
2023-04-30T00:51:23.180Z,912.00
2023-04-30T00:52:23.192Z,913.00
2023-04-30T00:53:23.178Z,914.00
2023-04-30T00:54:23.170Z,915.00
2023-04-30T00:55:23.162Z,914.00
2023-04-30T00:56:23.167Z,915.00
2023-04-30T00:57:23.155Z,915.00
2023-04-30T00:58:23.138Z,916.00
2023-04-30T00:59:23.135Z,917.00
2023-04-30T01:00:23.132Z,915.00
2023-04-30T01:01:23.167Z,915.00
2023-04-30T01:02:23.172Z,915.00
2023-04-30T01:03:23.238Z,913.00
2023-04-30T01:04:23.105Z,913.00
2023-04-30T01:05:23.126Z,914.00
2023-04-30T01:06:23.153Z,914.00
2023-04-30T01:07:23.088Z,915.00
2023-04-30T01:08:23.073Z,912.00
2023-04-30T01:09:23.087Z,911.00
2023-04-30T01:10:23.071Z,909.00
2023-04-30T01:11:23.053Z,911.00
2023-04-30T01:12:23.078Z,913.00
2023-04-30T01:13:23.038Z,911.00
2023-04-30T01:14:23.030Z,908.00
2023-04-30T01:15:23.027Z,908.00
2023-04-30T01:16:23.094Z,903.00
2023-04-30T01:17:23.069Z,903.00
2023-04-30T01:18:23.194Z,904.00
2023-04-30T01:19:23.032Z,904.00
2023-04-30T01:20:23.029Z,908.00
2023-04-30T01:21:23.024Z,908.00
2023-04-30T01:22:23.024Z,909.00
2023-04-30T01:23:23.026Z,911.00
2023-04-30T01:24:23.012Z,908.00
2023-04-30T01:25:23.021Z,910.00
2023-04-30T01:26:23.025Z,907.00
2023-04-30T01:27:23.024Z,905.00
2023-04-30T01:28:23.032Z,905.00
2023-04-30T01:29:23.056Z,903.00
2023-04-30T01:30:23.037Z,902.00
2023-04-30T01:31:23.071Z,905.00
2023-04-30T01:32:23.107Z,903.00
2023-04-30T01:33:23.056Z,905.00
2023-04-30T01:34:23.025Z,905.00
2023-04-30T01:35:23.032Z,907.00
2023-04-30T01:36:23.048Z,903.00
2023-04-30T01:37:23.045Z,901.00
2023-04-30T01:38:23.058Z,901.00
2023-04-30T01:39:23.042Z,903.00
2023-04-30T01:40:23.045Z,904.00
2023-04-30T01:41:23.033Z,904.00
2023-04-30T01:42:23.038Z,900.00
2023-04-30T01:43:23.064Z,899.00
2023-04-30T01:44:23.065Z,897.00
2023-04-30T01:45:23.074Z,895.00
2023-04-30T01:46:23.181Z,897.00
2023-04-30T01:47:23.112Z,896.00
2023-04-30T01:48:23.082Z,895.00
2023-04-30T01:49:23.093Z,895.00
2023-04-30T01:50:23.070Z,894.00
2023-04-30T01:51:23.065Z,891.00
2023-04-30T01:52:23.061Z,892.00
2023-04-30T01:53:23.060Z,893.00
2023-04-30T01:54:23.064Z,892.00
2023-04-30T01:55:23.066Z,894.00
2023-04-30T01:56:23.068Z,896.00
2023-04-30T01:57:23.088Z,897.00
2023-04-30T01:58:23.911Z,897.00
2023-04-30T01:59:23.123Z,894.00
2023-04-30T02:00:23.150Z,893.00
2023-04-30T02:01:23.204Z,893.00
2023-04-30T02:02:23.225Z,892.00
2023-04-30T02:03:23.214Z,890.00
2023-04-30T02:04:23.182Z,888.00
2023-04-30T02:05:23.202Z,887.00
2023-04-30T02:06:23.228Z,887.00
2023-04-30T02:07:23.185Z,888.00
2023-04-30T02:08:23.159Z,887.00
2023-04-30T02:09:23.164Z,889.00
2023-04-30T02:10:23.161Z,887.00
2023-04-30T02:11:23.154Z,889.00
2023-04-30T02:12:23.154Z,888.00
2023-04-30T02:13:23.149Z,888.00
2023-04-30T02:14:23.148Z,888.00
2023-04-30T02:15:23.187Z,886.00
2023-04-30T02:16:23.151Z,886.00
2023-04-30T02:17:23.151Z,888.00
2023-04-30T02:18:23.286Z,891.00
2023-04-30T02:19:23.177Z,889.00
2023-04-30T02:20:23.173Z,885.00
2023-04-30T02:21:23.191Z,882.00
2023-04-30T02:22:23.149Z,880.00
2023-04-30T02:23:23.150Z,881.00
2023-04-30T02:24:23.163Z,880.00
2023-04-30T02:25:23.160Z,881.00
2023-04-30T02:26:23.151Z,883.00
2023-04-30T02:27:23.811Z,884.00
2023-04-30T02:28:23.133Z,887.00
2023-04-30T02:29:23.190Z,885.00
2023-04-30T02:30:23.125Z,885.00
2023-04-30T02:31:23.165Z,883.00
2023-04-30T02:32:23.133Z,880.00
2023-04-30T02:33:23.125Z,880.00
2023-04-30T02:34:23.118Z,880.00
2023-04-30T02:35:23.203Z,879.00
2023-04-30T02:36:23.106Z,880.00
2023-04-30T02:37:23.128Z,881.00
2023-04-30T02:38:23.100Z,880.00
2023-04-30T02:39:23.108Z,883.00
2023-04-30T02:40:23.112Z,881.00
2023-04-30T02:41:23.107Z,880.00
2023-04-30T02:42:23.107Z,879.00
2023-04-30T02:43:23.104Z,877.00
2023-04-30T02:44:23.094Z,879.00
2023-04-30T02:45:23.105Z,883.00
2023-04-30T02:46:23.130Z,883.00
2023-04-30T02:47:23.141Z,882.00
2023-04-30T02:48:23.080Z,880.00
2023-04-30T02:49:23.082Z,882.00
2023-04-30T02:50:23.076Z,884.00
2023-04-30T02:51:23.070Z,883.00
2023-04-30T02:52:23.065Z,879.00
2023-04-30T02:53:23.083Z,878.00
2023-04-30T02:54:23.068Z,876.00
2023-04-30T02:55:23.060Z,876.00
2023-04-30T02:56:23.062Z,876.00
2023-04-30T02:57:23.050Z,877.00
2023-04-30T02:58:23.037Z,876.00
2023-04-30T02:59:23.033Z,876.00
2023-04-30T03:00:23.026Z,877.00
2023-04-30T03:01:23.079Z,876.00
2023-04-30T03:02:23.033Z,877.00
2023-04-30T03:03:23.126Z,876.00
2023-04-30T03:04:23.038Z,876.00
2023-04-30T03:05:23.020Z,876.00
2023-04-30T03:06:23.085Z,873.00
2023-04-30T03:07:23.006Z,873.00
2023-04-30T03:08:22.997Z,873.00
2023-04-30T03:09:23.020Z,872.00
2023-04-30T03:10:23.000Z,871.00
2023-04-30T03:11:22.995Z,872.00
2023-04-30T03:12:22.982Z,873.00
2023-04-30T03:13:22.986Z,876.00
2023-04-30T03:14:22.961Z,876.00
2023-04-30T03:15:22.960Z,874.00
2023-04-30T03:16:22.997Z,875.00
2023-04-30T03:17:22.983Z,874.00
2023-04-30T03:18:22.953Z,871.00
2023-04-30T03:19:22.939Z,870.00
2023-04-30T03:20:22.940Z,869.00
2023-04-30T03:21:22.942Z,868.00
2023-04-30T03:22:22.952Z,869.00
2023-04-30T03:23:22.935Z,870.00
2023-04-30T03:24:22.940Z,871.00
2023-04-30T03:25:22.956Z,869.00
2023-04-30T03:26:22.927Z,869.00
2023-04-30T03:27:22.925Z,868.00
2023-04-30T03:28:22.933Z,869.00
2023-04-30T03:29:22.940Z,867.00
2023-04-30T03:30:22.928Z,866.00
2023-04-30T03:31:23.001Z,865.00
2023-04-30T03:32:22.998Z,865.00
2023-04-30T03:33:23.088Z,866.00
2023-04-30T03:34:22.915Z,866.00
2023-04-30T03:35:22.916Z,866.00
2023-04-30T03:36:22.914Z,867.00
2023-04-30T03:37:22.906Z,865.00
2023-04-30T03:38:22.903Z,864.00
2023-04-30T03:39:22.906Z,862.00
2023-04-30T03:40:22.908Z,862.00
2023-04-30T03:41:22.946Z,859.00
2023-04-30T03:42:22.919Z,857.00
2023-04-30T03:43:22.916Z,858.00
2023-04-30T03:44:22.925Z,858.00
2023-04-30T03:45:22.899Z,859.00
2023-04-30T03:46:22.946Z,859.00
2023-04-30T03:47:22.896Z,861.00
2023-04-30T03:48:22.909Z,859.00
2023-04-30T03:49:22.889Z,861.00
2023-04-30T03:50:22.890Z,860.00
2023-04-30T03:51:22.888Z,858.00
2023-04-30T03:52:22.872Z,858.00
2023-04-30T03:53:22.885Z,858.00
2023-04-30T03:54:22.872Z,861.00
2023-04-30T03:55:22.865Z,859.00
2023-04-30T03:56:22.861Z,857.00
2023-04-30T03:57:22.881Z,857.00
2023-04-30T03:58:22.857Z,857.00
2023-04-30T03:59:22.845Z,855.00
2023-04-30T04:00:22.872Z,853.00
2023-04-30T04:01:22.849Z,852.00
2023-04-30T04:02:23.145Z,852.00
2023-04-30T04:03:22.837Z,853.00
2023-04-30T04:04:22.910Z,851.00
2023-04-30T04:05:22.826Z,848.00
2023-04-30T04:06:22.882Z,846.00
2023-04-30T04:07:23.350Z,846.00
2023-04-30T04:08:22.818Z,847.00
2023-04-30T04:09:22.807Z,847.00
2023-04-30T04:10:22.803Z,848.00
2023-04-30T04:11:22.801Z,850.00
2023-04-30T04:12:22.796Z,850.00
2023-04-30T04:13:22.823Z,845.00
2023-04-30T04:14:22.791Z,845.00
2023-04-30T04:15:22.785Z,846.00
2023-04-30T04:16:22.822Z,845.00
2023-04-30T04:17:22.874Z,842.00
2023-04-30T04:18:22.772Z,843.00
2023-04-30T04:19:22.796Z,843.00
2023-04-30T04:20:22.769Z,844.00
2023-04-30T04:21:22.764Z,844.00
2023-04-30T04:22:22.765Z,844.00
2023-04-30T04:23:22.762Z,844.00
2023-04-30T04:24:22.761Z,844.00
2023-04-30T04:25:22.749Z,847.00
2023-04-30T04:26:22.867Z,849.00
2023-04-30T04:27:22.753Z,850.00
2023-04-30T04:28:22.776Z,848.00
2023-04-30T04:29:22.792Z,845.00
2023-04-30T04:30:22.753Z,846.00
2023-04-30T04:31:22.933Z,849.00
2023-04-30T04:32:23.028Z,847.00
2023-04-30T04:33:22.736Z,848.00
2023-04-30T04:34:22.734Z,847.00
2023-04-30T04:35:22.733Z,846.00
2023-04-30T04:36:22.727Z,843.00
2023-04-30T04:37:22.761Z,844.00
2023-04-30T04:38:22.724Z,840.00
2023-04-30T04:39:22.763Z,839.00
2023-04-30T04:40:22.712Z,838.00
2023-04-30T04:41:22.734Z,839.00
2023-04-30T04:42:22.706Z,838.00
2023-04-30T04:43:22.701Z,839.00
2023-04-30T04:44:22.706Z,839.00
2023-04-30T04:45:22.730Z,840.00
2023-04-30T04:46:22.741Z,839.00
2023-04-30T04:47:22.778Z,837.00
2023-04-30T04:48:22.694Z,838.00
2023-04-30T04:49:22.692Z,837.00
2023-04-30T04:50:22.697Z,833.00
2023-04-30T04:51:22.718Z,834.00
2023-04-30T04:52:22.700Z,833.00
2023-04-30T04:53:22.680Z,835.00
2023-04-30T04:54:22.711Z,835.00
2023-04-30T04:55:22.733Z,836.00
2023-04-30T04:56:22.707Z,835.00
2023-04-30T04:57:22.685Z,833.00
2023-04-30T04:58:22.676Z,834.00
2023-04-30T04:59:22.722Z,835.00
2023-04-30T05:00:22.703Z,834.00
2023-04-30T05:01:22.761Z,829.00
2023-04-30T05:02:22.712Z,827.00
2023-04-30T05:03:22.792Z,830.00
2023-04-30T05:04:22.678Z,831.00
2023-04-30T05:05:22.680Z,833.00
2023-04-30T05:06:22.777Z,835.00
2023-04-30T05:07:22.690Z,832.00
2023-04-30T05:08:22.678Z,832.00
2023-04-30T05:09:22.703Z,833.00
2023-04-30T05:10:22.718Z,830.00
2023-04-30T05:11:22.747Z,831.00
2023-04-30T05:12:22.678Z,830.00
2023-04-30T05:13:22.680Z,829.00
2023-04-30T05:14:22.723Z,829.00
2023-04-30T05:15:22.688Z,833.00
2023-04-30T05:16:22.735Z,833.00
2023-04-30T05:17:22.764Z,832.00
2023-04-30T05:18:22.684Z,833.00
2023-04-30T05:19:22.687Z,833.00
2023-04-30T05:20:22.692Z,831.00
2023-04-30T05:21:22.701Z,828.00
2023-04-30T05:22:22.698Z,825.00
2023-04-30T05:23:22.703Z,823.00
2023-04-30T05:24:22.692Z,821.00
2023-04-30T05:25:22.715Z,820.00
2023-04-30T05:26:22.723Z,820.00
2023-04-30T05:27:22.691Z,819.00
2023-04-30T05:28:22.683Z,823.00
2023-04-30T05:29:22.690Z,822.00
2023-04-30T05:30:22.684Z,820.00
2023-04-30T05:31:22.791Z,819.00
2023-04-30T05:32:22.750Z,820.00
2023-04-30T05:33:22.712Z,821.00
2023-04-30T05:34:22.680Z,823.00
2023-04-30T05:35:22.684Z,822.00
2023-04-30T05:36:22.689Z,821.00
2023-04-30T05:37:22.733Z,821.00
2023-04-30T05:38:22.676Z,822.00
2023-04-30T05:39:22.671Z,823.00
2023-04-30T05:40:22.697Z,820.00
2023-04-30T05:41:22.663Z,822.00
2023-04-30T05:42:22.671Z,820.00
2023-04-30T05:43:22.678Z,818.00
2023-04-30T05:44:22.695Z,819.00
2023-04-30T05:45:22.668Z,816.00
2023-04-30T05:46:22.778Z,815.00
2023-04-30T05:47:22.672Z,818.00
2023-04-30T05:48:22.688Z,819.00
2023-04-30T05:49:22.702Z,819.00
2023-04-30T05:50:22.675Z,819.00
2023-04-30T05:51:22.694Z,821.00
2023-04-30T05:52:22.700Z,822.00
2023-04-30T05:53:22.673Z,823.00
2023-04-30T05:54:22.696Z,823.00
2023-04-30T05:55:22.670Z,818.00
2023-04-30T05:56:22.662Z,815.00
2023-04-30T05:57:22.679Z,813.00
2023-04-30T05:58:22.661Z,811.00
2023-04-30T05:59:22.668Z,811.00
2023-04-30T06:00:22.647Z,811.00
2023-04-30T06:01:22.645Z,811.00
2023-04-30T06:02:22.675Z,810.00
2023-04-30T06:03:22.776Z,807.00
2023-04-30T06:04:22.664Z,809.00
2023-04-30T06:05:22.716Z,811.00
2023-04-30T06:06:22.670Z,813.00
2023-04-30T06:07:22.622Z,812.00
2023-04-30T06:08:22.615Z,811.00
2023-04-30T06:09:22.647Z,812.00
2023-04-30T06:10:22.616Z,811.00
2023-04-30T06:11:22.623Z,811.00
2023-04-30T06:12:22.632Z,812.00
2023-04-30T06:13:22.600Z,815.00
2023-04-30T06:14:22.685Z,815.00
2023-04-30T06:15:22.602Z,813.00
2023-04-30T06:16:22.645Z,814.00
2023-04-30T06:17:22.670Z,810.00
2023-04-30T06:18:22.591Z,809.00
2023-04-30T06:19:22.577Z,809.00
2023-04-30T06:20:22.583Z,810.00
2023-04-30T06:21:22.593Z,810.00
2023-04-30T06:22:22.562Z,811.00
2023-04-30T06:23:22.566Z,812.00
2023-04-30T06:24:22.599Z,811.00
2023-04-30T06:25:22.554Z,813.00
2023-04-30T06:26:22.549Z,811.00
2023-04-30T06:27:22.545Z,811.00
2023-04-30T06:28:22.548Z,815.00
2023-04-30T06:29:22.569Z,815.00
2023-04-30T06:30:22.526Z,813.00
2023-04-30T06:31:22.548Z,812.00
2023-04-30T06:32:22.534Z,812.00
2023-04-30T06:33:22.530Z,811.00
2023-04-30T06:34:22.544Z,810.00
2023-04-30T06:35:22.539Z,807.00
2023-04-30T06:36:22.545Z,808.00
2023-04-30T06:37:22.582Z,806.00
2023-04-30T06:38:22.556Z,807.00
2023-04-30T06:39:22.537Z,808.00
2023-04-30T06:40:22.536Z,808.00
2023-04-30T06:41:22.579Z,805.00
2023-04-30T06:42:22.540Z,804.00
2023-04-30T06:43:22.542Z,803.00
2023-04-30T06:44:22.571Z,804.00
2023-04-30T06:45:22.562Z,803.00
2023-04-30T06:46:22.584Z,802.00
2023-04-30T06:47:22.632Z,800.00
2023-04-30T06:48:22.591Z,801.00
2023-04-30T06:49:22.651Z,799.00
2023-04-30T06:50:22.617Z,801.00
2023-04-30T06:51:22.590Z,803.00
2023-04-30T06:52:22.596Z,802.00
2023-04-30T06:53:22.661Z,802.00
2023-04-30T06:54:22.759Z,801.00
2023-04-30T06:55:22.634Z,802.00
2023-04-30T06:56:22.649Z,801.00
2023-04-30T06:57:22.646Z,803.00
2023-04-30T06:58:22.653Z,803.00
2023-04-30T06:59:22.758Z,802.00
2023-04-30T07:00:22.662Z,806.00
2023-04-30T07:01:22.792Z,804.00
2023-04-30T07:02:22.707Z,805.00
2023-04-30T07:03:22.775Z,805.00
2023-04-30T07:04:22.702Z,804.00
2023-04-30T07:05:22.720Z,802.00
2023-04-30T07:06:22.842Z,802.00
2023-04-30T07:07:22.764Z,802.00
2023-04-30T07:08:22.776Z,803.00
2023-04-30T07:09:22.808Z,802.00
2023-04-30T07:10:22.812Z,800.00
2023-04-30T07:11:22.785Z,799.00
2023-04-30T07:12:22.791Z,800.00
2023-04-30T07:13:22.808Z,798.00
2023-04-30T07:14:22.810Z,799.00
2023-04-30T07:15:22.831Z,799.00
2023-04-30T07:16:22.873Z,799.00
2023-04-30T07:17:23.110Z,797.00
2023-04-30T07:18:22.903Z,797.00
2023-04-30T07:19:22.916Z,798.00
2023-04-30T07:20:22.943Z,798.00
2023-04-30T07:21:22.971Z,799.00
2023-04-30T07:22:22.975Z,799.00
2023-04-30T07:23:22.995Z,799.00
2023-04-30T07:24:23.042Z,803.00
2023-04-30T07:25:23.087Z,804.00
2023-04-30T07:26:23.072Z,805.00
2023-04-30T07:27:23.090Z,807.00
2023-04-30T07:28:23.106Z,807.00
2023-04-30T07:29:23.129Z,807.00
2023-04-30T07:30:25.229Z,806.00
2023-04-30T07:31:23.192Z,807.00
2023-04-30T07:32:23.136Z,807.00
2023-04-30T07:33:23.180Z,805.00
2023-04-30T07:34:23.132Z,806.00
2023-04-30T07:35:23.114Z,806.00
2023-04-30T07:36:23.121Z,804.00
2023-04-30T07:37:23.099Z,803.00
2023-04-30T07:38:23.091Z,804.00
2023-04-30T07:39:23.085Z,804.00
2023-04-30T07:41:22.094Z,802.00
2023-04-30T07:42:23.070Z,800.00
2023-04-30T07:43:23.059Z,800.00
2023-04-30T07:44:23.049Z,799.00
2023-04-30T07:45:23.046Z,799.00
2023-04-30T07:46:23.172Z,797.00
2023-04-30T07:47:23.071Z,798.00
2023-04-30T07:48:23.029Z,798.00
2023-04-30T07:49:23.023Z,799.00
2023-04-30T07:50:23.086Z,798.00
2023-04-30T07:51:23.010Z,796.00
2023-04-30T07:52:23.016Z,797.00
2023-04-30T07:53:22.994Z,798.00
2023-04-30T07:54:22.990Z,797.00
2023-04-30T07:55:22.990Z,793.00
2023-04-30T07:56:23.007Z,792.00
2023-04-30T07:57:23.045Z,796.00
2023-04-30T07:58:22.977Z,796.00
2023-04-30T07:59:22.960Z,792.00
2023-04-30T08:00:22.989Z,792.00
2023-04-30T08:01:22.950Z,791.00
2023-04-30T08:02:23.014Z,792.00
2023-04-30T08:03:23.035Z,792.00
2023-04-30T08:04:22.944Z,789.00
2023-04-30T08:05:22.915Z,791.00
2023-04-30T08:06:22.960Z,791.00
2023-04-30T08:07:22.909Z,792.00
2023-04-30T08:08:22.901Z,794.00
2023-04-30T08:09:22.893Z,794.00
2023-04-30T08:10:22.888Z,794.00
2023-04-30T08:11:22.894Z,795.00
2023-04-30T08:12:22.872Z,794.00
2023-04-30T08:13:22.891Z,793.00
2023-04-30T08:14:22.856Z,794.00
2023-04-30T08:15:22.861Z,793.00
2023-04-30T08:16:22.876Z,791.00
2023-04-30T08:17:22.858Z,789.00
2023-04-30T08:18:22.878Z,788.00
2023-04-30T08:19:22.924Z,785.00
2023-04-30T08:20:22.977Z,784.00
2023-04-30T08:21:23.028Z,787.00
2023-04-30T08:22:23.110Z,787.00
2023-04-30T08:23:23.153Z,787.00
2023-04-30T08:24:23.224Z,788.00
2023-04-30T08:25:23.300Z,787.00
2023-04-30T08:26:23.336Z,790.00
2023-04-30T08:27:23.399Z,790.00
2023-04-30T08:28:23.460Z,791.00
2023-04-30T08:29:23.537Z,790.00
2023-04-30T08:30:23.589Z,792.00
2023-04-30T08:31:23.674Z,792.00
2023-04-30T08:32:24.007Z,795.00
2023-04-30T08:33:23.926Z,796.00
2023-04-30T08:34:23.814Z,794.00
2023-04-30T08:35:23.876Z,797.00
2023-04-30T08:36:23.930Z,797.00
2023-04-30T08:37:24.011Z,797.00
2023-04-30T08:38:24.807Z,794.00
2023-04-30T08:39:24.050Z,792.00
2023-04-30T08:40:43.770Z,791.00
2023-04-30T08:41:24.028Z,789.00
2023-04-30T08:42:24.031Z,791.00
2023-04-30T08:43:24.024Z,789.00
2023-04-30T08:44:24.156Z,787.00
2023-04-30T08:45:24.042Z,789.00
2023-04-30T08:46:24.009Z,789.00
2023-04-30T08:47:24.048Z,789.00
2023-04-30T08:48:23.988Z,790.00
2023-04-30T08:49:24.812Z,790.00
2023-04-30T08:50:23.966Z,792.00
2023-04-30T08:51:23.956Z,795.00
2023-04-30T08:52:23.963Z,794.00
2023-04-30T08:53:23.958Z,795.00
2023-04-30T08:54:23.943Z,792.00
2023-04-30T08:55:23.930Z,794.00
2023-04-30T08:56:25.485Z,794.00
2023-04-30T08:57:23.921Z,794.00
2023-04-30T08:58:23.921Z,795.00
2023-04-30T08:59:23.907Z,794.00
2023-04-30T09:00:23.895Z,796.00
2023-04-30T09:01:23.934Z,797.00
2023-04-30T09:02:23.932Z,795.00
2023-04-30T09:03:24.089Z,795.00
2023-04-30T09:04:23.889Z,794.00
2023-04-30T09:05:23.882Z,794.00
2023-04-30T09:06:23.904Z,795.00
2023-04-30T09:07:23.878Z,795.00
2023-04-30T09:08:23.865Z,795.00
2023-04-30T09:09:23.842Z,795.00
2023-04-30T09:10:23.835Z,794.00
2023-04-30T09:11:23.826Z,795.00
2023-04-30T09:12:23.871Z,795.00
2023-04-30T09:13:23.820Z,795.00
2023-04-30T09:14:23.815Z,793.00
2023-04-30T09:15:23.795Z,794.00
2023-04-30T09:16:23.841Z,796.00
2023-04-30T09:17:23.834Z,799.00
2023-04-30T09:18:23.805Z,800.00
2023-04-30T09:19:23.790Z,799.00
2023-04-30T09:20:23.773Z,798.00
2023-04-30T09:21:23.756Z,797.00
2023-04-30T09:22:23.785Z,797.00
2023-04-30T09:23:23.836Z,796.00
2023-04-30T09:24:23.889Z,797.00
2023-04-30T09:25:23.967Z,796.00
2023-04-30T09:26:23.991Z,796.00
2023-04-30T09:27:24.057Z,792.00
2023-04-30T09:28:24.116Z,791.00
2023-04-30T09:29:24.170Z,788.00
2023-04-30T09:30:24.226Z,788.00
2023-04-30T09:31:24.296Z,790.00
2023-04-30T09:32:24.355Z,792.00
2023-04-30T09:33:24.416Z,792.00
2023-04-30T09:34:24.436Z,793.00
2023-04-30T09:35:24.480Z,793.00
2023-04-30T09:36:24.536Z,793.00
2023-04-30T09:37:24.596Z,790.00
2023-04-30T09:38:24.648Z,789.00
2023-04-30T09:39:24.697Z,788.00
2023-04-30T09:40:24.741Z,788.00
2023-04-30T09:41:24.778Z,789.00
2023-04-30T09:42:24.836Z,786.00
2023-04-30T09:43:24.881Z,785.00
2023-04-30T09:44:24.937Z,784.00
2023-04-30T09:45:24.980Z,786.00
2023-04-30T09:46:25.054Z,784.00
2023-04-30T09:47:25.109Z,784.00
2023-04-30T09:48:25.188Z,786.00
2023-04-30T09:49:25.201Z,788.00
2023-04-30T09:50:25.218Z,790.00
2023-04-30T09:51:25.269Z,793.00
2023-04-30T09:52:25.321Z,793.00
2023-04-30T09:53:25.372Z,792.00
2023-04-30T09:54:25.414Z,791.00
2023-04-30T09:55:25.464Z,792.00
2023-04-30T09:56:25.514Z,791.00
2023-04-30T09:57:25.560Z,793.00
2023-04-30T09:58:25.607Z,794.00
2023-04-30T09:59:25.646Z,794.00
2023-04-30T10:00:25.700Z,790.00
2023-04-30T10:01:25.862Z,791.00
2023-04-30T10:02:25.836Z,790.00
2023-04-30T10:03:25.866Z,789.00
2023-04-30T10:04:25.984Z,788.00
2023-04-30T10:05:25.997Z,787.00
2023-04-30T10:06:26.045Z,786.00
2023-04-30T10:07:26.069Z,787.00
2023-04-30T10:08:26.137Z,788.00
2023-04-30T10:09:26.174Z,786.00
2023-04-30T10:10:26.230Z,784.00
2023-04-30T10:11:26.261Z,782.00
2023-04-30T10:12:26.309Z,784.00
2023-04-30T10:13:26.357Z,786.00
2023-04-30T10:14:26.403Z,787.00
2023-04-30T10:15:26.472Z,788.00
2023-04-30T10:16:26.518Z,788.00
2023-04-30T10:17:26.551Z,788.00
2023-04-30T10:18:26.589Z,787.00
2023-04-30T10:19:26.628Z,787.00
2023-04-30T10:20:26.680Z,788.00
2023-04-30T10:21:26.747Z,787.00
2023-04-30T10:22:26.763Z,787.00
2023-04-30T10:23:26.812Z,787.00
2023-04-30T10:24:26.864Z,786.00
2023-04-30T10:25:26.913Z,790.00
2023-04-30T10:26:26.957Z,790.00
2023-04-30T10:27:26.999Z,791.00
2023-04-30T10:28:27.053Z,790.00
2023-04-30T10:29:27.110Z,788.00
2023-04-30T10:30:27.165Z,787.00
2023-04-30T10:31:27.232Z,785.00
2023-04-30T10:32:27.407Z,783.00
2023-04-30T10:33:27.299Z,781.00
2023-04-30T10:34:27.346Z,781.00
2023-04-30T10:35:27.398Z,782.00
2023-04-30T10:36:27.466Z,782.00
2023-04-30T10:37:27.522Z,780.00
2023-04-30T10:38:27.549Z,781.00
2023-04-30T10:39:27.603Z,780.00
2023-04-30T10:40:27.631Z,781.00
2023-04-30T10:41:27.754Z,781.00
2023-04-30T10:42:27.721Z,782.00
2023-04-30T10:43:27.782Z,782.00
2023-04-30T10:44:27.819Z,782.00
2023-04-30T10:45:27.841Z,782.00
2023-04-30T10:46:28.003Z,783.00
2023-04-30T10:47:27.970Z,784.00
2023-04-30T10:48:27.972Z,782.00
2023-04-30T10:49:28.012Z,782.00
2023-04-30T10:50:28.054Z,779.00
2023-04-30T10:51:28.092Z,777.00
2023-04-30T10:52:28.145Z,776.00
2023-04-30T10:53:28.213Z,775.00
2023-04-30T10:54:28.224Z,775.00
2023-04-30T10:55:28.249Z,778.00
2023-04-30T10:56:28.280Z,779.00
2023-04-30T10:57:28.321Z,781.00
2023-04-30T10:58:28.359Z,781.00
2023-04-30T10:59:28.394Z,780.00
2023-04-30T11:00:28.439Z,779.00
2023-04-30T11:01:28.488Z,782.00
2023-04-30T11:02:28.523Z,781.00
2023-04-30T11:03:28.538Z,783.00
2023-04-30T11:04:28.632Z,784.00
2023-04-30T11:05:28.603Z,782.00
2023-04-30T11:06:28.711Z,778.00
2023-04-30T11:07:28.682Z,779.00
2023-04-30T11:08:28.707Z,777.00
2023-04-30T11:09:28.770Z,778.00
2023-04-30T11:10:28.777Z,778.00
2023-04-30T11:11:28.819Z,781.00
2023-04-30T11:12:28.890Z,783.00
2023-04-30T11:13:28.908Z,783.00
2023-04-30T11:14:28.926Z,785.00
2023-04-30T11:15:28.956Z,783.00
2023-04-30T11:16:29.082Z,781.00
2023-04-30T11:17:29.091Z,780.00
2023-04-30T11:18:29.062Z,778.00
2023-04-30T11:19:29.095Z,778.00
2023-04-30T11:20:29.139Z,776.00
2023-04-30T11:21:29.182Z,775.00
2023-04-30T11:22:29.217Z,774.00
2023-04-30T11:23:39.315Z,774.00
2023-04-30T11:24:29.245Z,774.00
2023-04-30T11:25:29.262Z,773.00
2023-04-30T11:26:29.227Z,773.00
2023-04-30T11:27:29.228Z,772.00
2023-04-30T11:28:29.228Z,774.00
2023-04-30T11:29:29.297Z,775.00
2023-04-30T11:30:29.198Z,777.00
2023-04-30T11:31:29.284Z,778.00
2023-04-30T11:32:29.189Z,775.00
2023-04-30T11:33:29.189Z,772.00
2023-04-30T11:34:29.182Z,775.00
2023-04-30T11:35:29.171Z,773.00
2023-04-30T11:36:29.168Z,773.00
2023-04-30T11:37:29.159Z,774.00
2023-04-30T11:38:29.174Z,773.00
2023-04-30T11:39:29.142Z,773.00
2023-04-30T11:40:29.140Z,773.00
2023-04-30T11:41:29.163Z,775.00
2023-04-30T11:42:29.125Z,775.00
2023-04-30T11:43:29.126Z,773.00
2023-04-30T11:44:29.114Z,772.00
2023-04-30T11:45:29.104Z,773.00
2023-04-30T11:46:29.150Z,771.00
2023-04-30T11:47:29.127Z,771.00
2023-04-30T11:48:29.089Z,770.00
2023-04-30T11:49:29.079Z,770.00
2023-04-30T11:50:29.370Z,769.00
2023-04-30T11:51:29.069Z,771.00
2023-04-30T11:52:29.061Z,772.00
2023-04-30T11:53:29.062Z,774.00
2023-04-30T11:54:29.053Z,774.00
2023-04-30T11:55:29.053Z,775.00
2023-04-30T11:56:29.036Z,775.00
2023-04-30T11:57:29.051Z,775.00
2023-04-30T11:58:29.521Z,777.00
2023-04-30T11:59:29.019Z,773.00
2023-04-30T12:00:29.011Z,773.00
2023-04-30T12:01:28.994Z,772.00
2023-04-30T12:02:29.121Z,770.00
2023-04-30T12:03:29.034Z,771.00
2023-04-30T12:04:29.104Z,771.00
2023-04-30T12:05:28.988Z,769.00
2023-04-30T12:06:29.147Z,768.00
2023-04-30T12:07:29.035Z,765.00
2023-04-30T12:08:29.063Z,768.00
2023-04-30T12:09:29.082Z,770.00
2023-04-30T12:10:29.105Z,771.00
2023-04-30T12:11:29.146Z,768.00
2023-04-30T12:12:29.155Z,765.00
2023-04-30T12:13:29.212Z,765.00
2023-04-30T12:14:29.213Z,766.00
2023-04-30T12:15:29.279Z,766.00
2023-04-30T12:16:29.297Z,766.00
2023-04-30T12:17:29.314Z,770.00
2023-04-30T12:18:29.308Z,770.00
2023-04-30T12:19:29.332Z,768.00
2023-04-30T12:20:29.351Z,763.00
2023-04-30T12:21:29.385Z,762.00
2023-04-30T12:22:29.405Z,760.00
2023-04-30T12:23:29.444Z,759.00
2023-04-30T12:24:29.467Z,760.00
2023-04-30T12:25:29.597Z,761.00
2023-04-30T12:26:29.517Z,761.00
2023-04-30T12:27:29.549Z,761.00
2023-04-30T12:28:29.563Z,760.00
2023-04-30T12:29:29.609Z,758.00